sensor_id;sensor_type;location;lat;lon;timestamp;temperature;humidity
19483;DHT22;9882;51.166;6.992;2023-02-02T00:01:35;7.40;99.90
19483;DHT22;9882;51.166;6.992;2023-02-02T00:04:04;7.50;99.90
19483;DHT22;9882;51.166;6.992;2023-02-02T00:06:33;7.40;99.90
19483;DHT22;9882;51.166;6.992;2023-02-02T00:09:02;7.40;99.90
19483;DHT22;9882;51.166;6.992;2023-02-02T00:11:30;7.40;99.90
19483;DHT22;9882;51.166;6.992;2023-02-02T00:13:59;7.40;99.90
19483;DHT22;9882;51.166;6.992;2023-02-02T00:16:37;7.40;99.90
19483;DHT22;9882;51.166;6.992;2023-02-02T00:19:09;7.40;99.90
19483;DHT22;9882;51.166;6.992;2023-02-02T00:21:37;7.40;99.90
19483;DHT22;9882;51.166;6.992;2023-02-02T00:24:07;7.40;99.90
19483;DHT22;9882;51.166;6.992;2023-02-02T00:26:36;7.40;99.90
19483;DHT22;9882;51.166;6.992;2023-02-02T00:29:06;7.40;99.90
19483;DHT22;9882;51.166;6.992;2023-02-02T00:31:36;7.30;99.90
19483;DHT22;9882;51.166;6.992;2023-02-02T00:34:04;7.30;99.90
19483;DHT22;9882;51.166;6.992;2023-02-02T00:36:33;7.40;99.90
19483;DHT22;9882;51.166;6.992;2023-02-02T00:39:01;7.40;99.90
19483;DHT22;9882;51.166;6.992;2023-02-02T00:41:30;7.30;99.90
19483;DHT22;9882;51.166;6.992;2023-02-02T00:43:58;7.30;99.90
19483;DHT22;9882;51.166;6.992;2023-02-02T00:46:45;7.30;99.90
19483;DHT22;9882;51.166;6.992;2023-02-02T00:49:14;7.30;99.90
19483;DHT22;9882;51.166;6.992;2023-02-02T00:51:42;7.30;99.90
19483;DHT22;9882;51.166;6.992;2023-02-02T00:54:11;7.30;99.90
19483;DHT22;9882;51.166;6.992;2023-02-02T00:56:41;7.30;99.90
19483;DHT22;9882;51.166;6.992;2023-02-02T00:59:11;7.30;99.90
19483;DHT22;9882;51.166;6.992;2023-02-02T01:01:39;7.30;99.90
19483;DHT22;9882;51.166;6.992;2023-02-02T01:04:09;7.30;99.90
19483;DHT22;9882;51.166;6.992;2023-02-02T01:06:39;7.20;99.90
19483;DHT22;9882;51.166;6.992;2023-02-02T01:09:08;7.20;99.90
19483;DHT22;9882;51.166;6.992;2023-02-02T01:11:36;7.30;99.90
19483;DHT22;9882;51.166;6.992;2023-02-02T01:14:05;7.20;99.90
19483;DHT22;9882;51.166;6.992;2023-02-02T01:16:33;7.20;99.90
19483;DHT22;9882;51.166;6.992;2023-02-02T01:19:02;7.20;99.90
19483;DHT22;9882;51.166;6.992;2023-02-02T01:21:32;7.20;99.90
19483;DHT22;9882;51.166;6.992;2023-02-02T01:24:00;7.20;99.90
19483;DHT22;9882;51.166;6.992;2023-02-02T01:26:29;7.20;99.90
19483;DHT22;9882;51.166;6.992;2023-02-02T01:28:57;7.20;99.90
19483;DHT22;9882;51.166;6.992;2023-02-02T01:31:26;7.30;99.90
19483;DHT22;9882;51.166;6.992;2023-02-02T01:33:54;7.20;99.90
19483;DHT22;9882;51.166;6.992;2023-02-02T01:36:23;7.20;99.90
19483;DHT22;9882;51.166;6.992;2023-02-02T01:38:54;7.20;99.90
19483;DHT22;9882;51.166;6.992;2023-02-02T01:41:24;7.20;99.90
19483;DHT22;9882;51.166;6.992;2023-02-02T01:43:56;7.20;99.90
19483;DHT22;9882;51.166;6.992;2023-02-02T01:46:27;7.20;99.90
19483;DHT22;9882;51.166;6.992;2023-02-02T01:49:02;7.20;99.90
19483;DHT22;9882;51.166;6.992;2023-02-02T01:51:51;7.20;99.90
19483;DHT22;9882;51.166;6.992;2023-02-02T01:54:24;7.20;99.90
19483;DHT22;9882;51.166;6.992;2023-02-02T01:56:59;7.20;99.90
19483;DHT22;9882;51.166;6.992;2023-02-02T01:59:30;7.20;99.90
19483;DHT22;9882;51.166;6.992;2023-02-02T02:01:59;7.10;99.90
19483;DHT22;9882;51.166;6.992;2023-02-02T02:04:29;7.20;99.90
19483;DHT22;9882;51.166;6.992;2023-02-02T02:07:00;7.10;99.90
19483;DHT22;9882;51.166;6.992;2023-02-02T02:09:32;7.10;99.90
19483;DHT22;9882;51.166;6.992;2023-02-02T02:12:01;7.20;99.90
19483;DHT22;9882;51.166;6.992;2023-02-02T02:14:29;7.20;99.90
19483;DHT22;9882;51.166;6.992;2023-02-02T02:17:39;7.10;99.90
19483;DHT22;9882;51.166;6.992;2023-02-02T02:20:36;7.10;99.90
19483;DHT22;9882;51.166;6.992;2023-02-02T02:23:45;7.10;99.90
19483;DHT22;9882;51.166;6.992;2023-02-02T02:26:59;7.10;99.90
19483;DHT22;9882;51.166;6.992;2023-02-02T02:32:39;7.00;99.90
19483;DHT22;9882;51.166;6.992;2023-02-02T02:35:17;6.90;99.90
19483;DHT22;9882;51.166;6.992;2023-02-02T02:37:50;6.90;99.90
19483;DHT22;9882;51.166;6.992;2023-02-02T02:40:25;6.90;99.90
19483;DHT22;9882;51.166;6.992;2023-02-02T02:42:59;7.00;99.90
19483;DHT22;9882;51.166;6.992;2023-02-02T02:45:31;7.00;99.90
19483;DHT22;9882;51.166;6.992;2023-02-02T02:48:03;7.00;99.90
19483;DHT22;9882;51.166;6.992;2023-02-02T02:50:31;6.90;99.90
19483;DHT22;9882;51.166;6.992;2023-02-02T02:53:05;6.90;99.90
19483;DHT22;9882;51.166;6.992;2023-02-02T02:55:41;6.90;99.90
19483;DHT22;9882;51.166;6.992;2023-02-02T02:58:18;6.90;99.90
19483;DHT22;9882;51.166;6.992;2023-02-02T03:00:54;6.90;99.90
19483;DHT22;9882;51.166;6.992;2023-02-02T03:03:37;7.00;99.90
19483;DHT22;9882;51.166;6.992;2023-02-02T03:06:13;6.90;99.90
19483;DHT22;9882;51.166;6.992;2023-02-02T03:08:47;6.90;99.90
19483;DHT22;9882;51.166;6.992;2023-02-02T03:11:18;6.90;99.90
19483;DHT22;9882;51.166;6.992;2023-02-02T03:13:47;6.90;99.90
19483;DHT22;9882;51.166;6.992;2023-02-02T03:16:16;6.90;99.90
19483;DHT22;9882;51.166;6.992;2023-02-02T03:18:46;6.90;99.90
19483;DHT22;9882;51.166;6.992;2023-02-02T03:21:14;7.00;99.90
19483;DHT22;9882;51.166;6.992;2023-02-02T03:23:43;6.90;99.90
19483;DHT22;9882;51.166;6.992;2023-02-02T03:26:12;6.80;99.90
19483;DHT22;9882;51.166;6.992;2023-02-02T03:28:40;6.90;99.90
19483;DHT22;9882;51.166;6.992;2023-02-02T03:31:09;6.80;99.90
19483;DHT22;9882;51.166;6.992;2023-02-02T03:33:38;6.80;99.90
19483;DHT22;9882;51.166;6.992;2023-02-02T03:36:08;6.80;99.90
19483;DHT22;9882;51.166;6.992;2023-02-02T03:38:37;6.80;99.90
19483;DHT22;9882;51.166;6.992;2023-02-02T03:41:05;6.80;99.90
19483;DHT22;9882;51.166;6.992;2023-02-02T03:43:34;6.80;99.90
19483;DHT22;9882;51.166;6.992;2023-02-02T03:46:04;6.80;99.90
19483;DHT22;9882;51.166;6.992;2023-02-02T03:48:35;6.80;99.90
19483;DHT22;9882;51.166;6.992;2023-02-02T03:51:09;6.80;99.90
19483;DHT22;9882;51.166;6.992;2023-02-02T03:53:39;6.80;99.90
19483;DHT22;9882;51.166;6.992;2023-02-02T03:56:10;6.90;99.90
19483;DHT22;9882;51.166;6.992;2023-02-02T03:58:38;6.80;99.90
19483;DHT22;9882;51.166;6.992;2023-02-02T04:01:10;6.70;99.90
19483;DHT22;9882;51.166;6.992;2023-02-02T04:03:39;6.70;99.90
19483;DHT22;9882;51.166;6.992;2023-02-02T04:06:08;6.80;99.90
19483;DHT22;9882;51.166;6.992;2023-02-02T04:08:37;6.70;99.90
19483;DHT22;9882;51.166;6.992;2023-02-02T04:11:08;6.80;99.90
19483;DHT22;9882;51.166;6.992;2023-02-02T04:13:37;6.70;99.90
19483;DHT22;9882;51.166;6.992;2023-02-02T04:16:06;6.70;99.90
19483;DHT22;9882;51.166;6.992;2023-02-02T04:18:35;6.60;99.90
19483;DHT22;9882;51.166;6.992;2023-02-02T04:21:05;6.70;99.90
19483;DHT22;9882;51.166;6.992;2023-02-02T04:23:36;6.70;99.90
19483;DHT22;9882;51.166;6.992;2023-02-02T04:26:04;6.70;99.90
19483;DHT22;9882;51.166;6.992;2023-02-02T04:28:33;6.70;99.90
19483;DHT22;9882;51.166;6.992;2023-02-02T04:31:02;6.70;99.90
19483;DHT22;9882;51.166;6.992;2023-02-02T04:33:30;6.70;99.90
19483;DHT22;9882;51.166;6.992;2023-02-02T04:36:01;6.70;99.90
19483;DHT22;9882;51.166;6.992;2023-02-02T04:38:29;6.70;99.90
19483;DHT22;9882;51.166;6.992;2023-02-02T04:41:05;6.70;99.90
19483;DHT22;9882;51.166;6.992;2023-02-02T04:43:33;6.70;99.90
19483;DHT22;9882;51.166;6.992;2023-02-02T04:46:02;6.80;99.90
19483;DHT22;9882;51.166;6.992;2023-02-02T04:48:31;6.70;99.90
19483;DHT22;9882;51.166;6.992;2023-02-02T04:51:00;6.70;99.90
19483;DHT22;9882;51.166;6.992;2023-02-02T04:53:29;6.70;99.90
19483;DHT22;9882;51.166;6.992;2023-02-02T04:56:04;6.70;99.90
19483;DHT22;9882;51.166;6.992;2023-02-02T04:58:33;6.60;99.90
19483;DHT22;9882;51.166;6.992;2023-02-02T05:01:07;6.60;99.90
19483;DHT22;9882;51.166;6.992;2023-02-02T05:03:36;6.60;99.90
19483;DHT22;9882;51.166;6.992;2023-02-02T05:06:05;6.60;99.90
19483;DHT22;9882;51.166;6.992;2023-02-02T05:08:34;6.60;99.90
19483;DHT22;9882;51.166;6.992;2023-02-02T05:11:08;6.70;99.90
19483;DHT22;9882;51.166;6.992;2023-02-02T05:13:36;6.60;99.90
19483;DHT22;9882;51.166;6.992;2023-02-02T05:16:06;6.70;99.90
19483;DHT22;9882;51.166;6.992;2023-02-02T05:18:34;6.70;99.90
19483;DHT22;9882;51.166;6.992;2023-02-02T05:21:03;6.60;99.90
19483;DHT22;9882;51.166;6.992;2023-02-02T05:23:32;6.60;99.90
19483;DHT22;9882;51.166;6.992;2023-02-02T05:26:00;6.60;99.90
19483;DHT22;9882;51.166;6.992;2023-02-02T05:28:30;6.60;99.90
19483;DHT22;9882;51.166;6.992;2023-02-02T05:31:04;6.60;99.90
19483;DHT22;9882;51.166;6.992;2023-02-02T05:33:33;6.60;99.90
19483;DHT22;9882;51.166;6.992;2023-02-02T05:36:02;6.60;99.90
19483;DHT22;9882;51.166;6.992;2023-02-02T05:38:31;6.60;99.90
19483;DHT22;9882;51.166;6.992;2023-02-02T05:41:00;6.60;99.90
19483;DHT22;9882;51.166;6.992;2023-02-02T05:43:31;6.70;99.90
19483;DHT22;9882;51.166;6.992;2023-02-02T05:46:00;6.70;99.90
19483;DHT22;9882;51.166;6.992;2023-02-02T05:48:28;6.60;99.90
19483;DHT22;9882;51.166;6.992;2023-02-02T05:51:00;6.60;99.90
19483;DHT22;9882;51.166;6.992;2023-02-02T05:53:31;6.70;99.90
19483;DHT22;9882;51.166;6.992;2023-02-02T05:55:59;6.60;99.90
19483;DHT22;9882;51.166;6.992;2023-02-02T05:58:29;6.70;99.90
19483;DHT22;9882;51.166;6.992;2023-02-02T06:00:58;6.70;99.90
19483;DHT22;9882;51.166;6.992;2023-02-02T06:03:26;6.70;99.90
19483;DHT22;9882;51.166;6.992;2023-02-02T06:05:55;6.60;99.90
19483;DHT22;9882;51.166;6.992;2023-02-02T06:08:23;6.70;99.90
19483;DHT22;9882;51.166;6.992;2023-02-02T06:10:52;6.80;99.90
19483;DHT22;9882;51.166;6.992;2023-02-02T06:13:21;6.70;99.90
19483;DHT22;9882;51.166;6.992;2023-02-02T06:15:50;6.70;99.90
19483;DHT22;9882;51.166;6.992;2023-02-02T06:18:19;6.80;99.90
19483;DHT22;9882;51.166;6.992;2023-02-02T06:20:54;6.80;99.90
19483;DHT22;9882;51.166;6.992;2023-02-02T06:23:24;6.70;99.90
19483;DHT22;9882;51.166;6.992;2023-02-02T06:25:55;6.80;99.90
19483;DHT22;9882;51.166;6.992;2023-02-02T06:28:23;6.80;99.90
19483;DHT22;9882;51.166;6.992;2023-02-02T06:30:53;6.80;99.90
19483;DHT22;9882;51.166;6.992;2023-02-02T06:33:22;6.70;99.90
19483;DHT22;9882;51.166;6.992;2023-02-02T06:35:51;6.80;99.90
19483;DHT22;9882;51.166;6.992;2023-02-02T06:38:19;6.80;99.90
19483;DHT22;9882;51.166;6.992;2023-02-02T06:40:48;6.80;99.90
19483;DHT22;9882;51.166;6.992;2023-02-02T06:43:16;6.80;99.90
19483;DHT22;9882;51.166;6.992;2023-02-02T06:45:45;6.80;99.90
19483;DHT22;9882;51.166;6.992;2023-02-02T06:48:15;6.80;99.90
19483;DHT22;9882;51.166;6.992;2023-02-02T06:50:43;6.80;99.90
19483;DHT22;9882;51.166;6.992;2023-02-02T06:53:12;6.70;99.90
19483;DHT22;9882;51.166;6.992;2023-02-02T06:55:40;6.70;99.90
19483;DHT22;9882;51.166;6.992;2023-02-02T06:58:08;6.70;99.90
19483;DHT22;9882;51.166;6.992;2023-02-02T07:00:37;6.70;99.90
19483;DHT22;9882;51.166;6.992;2023-02-02T07:03:05;6.60;99.90
19483;DHT22;9882;51.166;6.992;2023-02-02T07:05:35;6.70;99.90
19483;DHT22;9882;51.166;6.992;2023-02-02T07:08:04;6.70;99.90
19483;DHT22;9882;51.166;6.992;2023-02-02T07:10:33;6.70;99.90
19483;DHT22;9882;51.166;6.992;2023-02-02T07:13:03;6.70;99.90
19483;DHT22;9882;51.166;6.992;2023-02-02T07:15:33;6.70;99.90
19483;DHT22;9882;51.166;6.992;2023-02-02T07:18:01;6.70;99.90
19483;DHT22;9882;51.166;6.992;2023-02-02T07:20:30;6.70;99.90
19483;DHT22;9882;51.166;6.992;2023-02-02T07:23:01;6.70;99.90
19483;DHT22;9882;51.166;6.992;2023-02-02T07:25:30;6.70;99.90
19483;DHT22;9882;51.166;6.992;2023-02-02T07:27:59;6.70;99.90
19483;DHT22;9882;51.166;6.992;2023-02-02T07:30:27;6.80;99.90
19483;DHT22;9882;51.166;6.992;2023-02-02T07:32:56;6.80;99.90
19483;DHT22;9882;51.166;6.992;2023-02-02T07:35:24;6.70;99.90
19483;DHT22;9882;51.166;6.992;2023-02-02T07:37:54;6.70;99.90
19483;DHT22;9882;51.166;6.992;2023-02-02T07:40:23;6.70;99.90
19483;DHT22;9882;51.166;6.992;2023-02-02T07:42:52;6.70;99.90
19483;DHT22;9882;51.166;6.992;2023-02-02T07:45:20;6.70;99.90
19483;DHT22;9882;51.166;6.992;2023-02-02T07:47:54;6.80;99.90
19483;DHT22;9882;51.166;6.992;2023-02-02T07:50:23;6.70;99.90
19483;DHT22;9882;51.166;6.992;2023-02-02T07:52:52;6.70;99.90
19483;DHT22;9882;51.166;6.992;2023-02-02T07:55:21;6.70;99.90
19483;DHT22;9882;51.166;6.992;2023-02-02T07:57:52;6.70;99.90
19483;DHT22;9882;51.166;6.992;2023-02-02T08:00:22;6.70;99.90
19483;DHT22;9882;51.166;6.992;2023-02-02T08:02:51;6.70;99.90
19483;DHT22;9882;51.166;6.992;2023-02-02T08:05:20;6.80;99.90
19483;DHT22;9882;51.166;6.992;2023-02-02T08:07:49;6.70;99.90
19483;DHT22;9882;51.166;6.992;2023-02-02T08:10:17;6.70;99.90
19483;DHT22;9882;51.166;6.992;2023-02-02T08:12:46;6.70;99.90
19483;DHT22;9882;51.166;6.992;2023-02-02T08:15:16;6.70;99.90
19483;DHT22;9882;51.166;6.992;2023-02-02T08:17:45;6.70;99.90
19483;DHT22;9882;51.166;6.992;2023-02-02T08:20:16;6.80;99.90
19483;DHT22;9882;51.166;6.992;2023-02-02T08:22:44;6.70;99.90
19483;DHT22;9882;51.166;6.992;2023-02-02T08:25:13;6.60;99.90
19483;DHT22;9882;51.166;6.992;2023-02-02T08:27:41;6.60;99.90
19483;DHT22;9882;51.166;6.992;2023-02-02T08:30:11;6.60;99.90
19483;DHT22;9882;51.166;6.992;2023-02-02T08:32:41;6.60;99.90
19483;DHT22;9882;51.166;6.992;2023-02-02T08:35:09;6.60;99.90
19483;DHT22;9882;51.166;6.992;2023-02-02T08:37:38;6.70;99.90
19483;DHT22;9882;51.166;6.992;2023-02-02T08:40:08;6.60;99.90
19483;DHT22;9882;51.166;6.992;2023-02-02T08:42:36;6.70;99.90
19483;DHT22;9882;51.166;6.992;2023-02-02T08:45:06;6.70;99.90
19483;DHT22;9882;51.166;6.992;2023-02-02T08:47:35;6.60;99.90
19483;DHT22;9882;51.166;6.992;2023-02-02T08:50:05;6.60;99.90
19483;DHT22;9882;51.166;6.992;2023-02-02T08:52:34;6.70;99.90
19483;DHT22;9882;51.166;6.992;2023-02-02T08:55:03;6.70;99.90
19483;DHT22;9882;51.166;6.992;2023-02-02T08:57:31;6.70;99.90
19483;DHT22;9882;51.166;6.992;2023-02-02T09:00:00;6.60;99.90
19483;DHT22;9882;51.166;6.992;2023-02-02T09:02:29;6.70;99.90
19483;DHT22;9882;51.166;6.992;2023-02-02T09:04:57;6.70;99.90
19483;DHT22;9882;51.166;6.992;2023-02-02T09:07:27;6.70;99.90
19483;DHT22;9882;51.166;6.992;2023-02-02T09:09:56;6.70;99.90
19483;DHT22;9882;51.166;6.992;2023-02-02T09:12:24;6.70;99.90
19483;DHT22;9882;51.166;6.992;2023-02-02T09:14:53;6.70;99.90
19483;DHT22;9882;51.166;6.992;2023-02-02T09:17:21;6.70;99.90
19483;DHT22;9882;51.166;6.992;2023-02-02T09:19:50;6.60;99.90
19483;DHT22;9882;51.166;6.992;2023-02-02T09:22:18;6.80;99.90
19483;DHT22;9882;51.166;6.992;2023-02-02T09:24:48;6.70;99.90
19483;DHT22;9882;51.166;6.992;2023-02-02T09:27:17;6.70;99.90
19483;DHT22;9882;51.166;6.992;2023-02-02T09:29:46;6.70;99.90
19483;DHT22;9882;51.166;6.992;2023-02-02T09:32:14;6.70;99.90
19483;DHT22;9882;51.166;6.992;2023-02-02T09:34:43;6.70;99.90
19483;DHT22;9882;51.166;6.992;2023-02-02T09:37:11;6.70;99.90
19483;DHT22;9882;51.166;6.992;2023-02-02T09:39:40;6.80;99.90
19483;DHT22;9882;51.166;6.992;2023-02-02T09:42:31;6.70;99.90
19483;DHT22;9882;51.166;6.992;2023-02-02T09:45:06;6.70;99.90
19483;DHT22;9882;51.166;6.992;2023-02-02T09:47:49;6.70;99.90
19483;DHT22;9882;51.166;6.992;2023-02-02T09:50:26;6.70;99.90
19483;DHT22;9882;51.166;6.992;2023-02-02T09:52:58;6.80;99.90
19483;DHT22;9882;51.166;6.992;2023-02-02T09:55:33;6.80;99.90
19483;DHT22;9882;51.166;6.992;2023-02-02T09:58:11;6.90;99.90
19483;DHT22;9882;51.166;6.992;2023-02-02T10:00:44;6.70;99.90
19483;DHT22;9882;51.166;6.992;2023-02-02T10:03:17;6.70;99.90
19483;DHT22;9882;51.166;6.992;2023-02-02T10:05:51;6.70;99.90
19483;DHT22;9882;51.166;6.992;2023-02-02T10:08:27;6.80;99.90
19483;DHT22;9882;51.166;6.992;2023-02-02T10:11:07;6.80;99.90
19483;DHT22;9882;51.166;6.992;2023-02-02T10:13:44;6.80;99.90
19483;DHT22;9882;51.166;6.992;2023-02-02T10:16:16;6.80;99.90
19483;DHT22;9882;51.166;6.992;2023-02-02T10:18:49;6.80;99.90
19483;DHT22;9882;51.166;6.992;2023-02-02T10:21:25;6.80;99.90
19483;DHT22;9882;51.166;6.992;2023-02-02T10:23:56;6.90;99.90
19483;DHT22;9882;51.166;6.992;2023-02-02T10:26:32;6.80;99.90
19483;DHT22;9882;51.166;6.992;2023-02-02T10:29:17;6.90;99.90
19483;DHT22;9882;51.166;6.992;2023-02-02T10:31:58;6.90;99.90
19483;DHT22;9882;51.166;6.992;2023-02-02T10:34:32;7.00;99.90
19483;DHT22;9882;51.166;6.992;2023-02-02T10:37:15;6.90;99.90
19483;DHT22;9882;51.166;6.992;2023-02-02T10:39:54;7.00;99.90
19483;DHT22;9882;51.166;6.992;2023-02-02T10:42:34;7.00;99.90
19483;DHT22;9882;51.166;6.992;2023-02-02T10:45:13;6.90;99.90
19483;DHT22;9882;51.166;6.992;2023-02-02T10:47:43;7.00;99.90
19483;DHT22;9882;51.166;6.992;2023-02-02T10:50:17;7.00;99.90
19483;DHT22;9882;51.166;6.992;2023-02-02T10:52:48;7.00;99.90
19483;DHT22;9882;51.166;6.992;2023-02-02T10:55:27;7.10;99.90
19483;DHT22;9882;51.166;6.992;2023-02-02T10:58:05;7.10;99.90
19483;DHT22;9882;51.166;6.992;2023-02-02T11:00:40;7.10;99.90
19483;DHT22;9882;51.166;6.992;2023-02-02T11:03:13;7.10;99.90
19483;DHT22;9882;51.166;6.992;2023-02-02T11:05:43;7.20;99.90
19483;DHT22;9882;51.166;6.992;2023-02-02T11:08:31;7.20;99.90
19483;DHT22;9882;51.166;6.992;2023-02-02T11:11:11;7.20;99.90
19483;DHT22;9882;51.166;6.992;2023-02-02T11:13:42;7.20;99.90
19483;DHT22;9882;51.166;6.992;2023-02-02T11:16:27;7.30;99.90
19483;DHT22;9882;51.166;6.992;2023-02-02T11:19:22;7.20;99.90
19483;DHT22;9882;51.166;6.992;2023-02-02T11:21:53;7.30;99.90
19483;DHT22;9882;51.166;6.992;2023-02-02T11:24:25;7.30;99.90
19483;DHT22;9882;51.166;6.992;2023-02-02T11:26:56;7.30;99.90
19483;DHT22;9882;51.166;6.992;2023-02-02T11:29:30;7.30;99.90
19483;DHT22;9882;51.166;6.992;2023-02-02T11:32:19;7.30;99.90
19483;DHT22;9882;51.166;6.992;2023-02-02T11:35:13;7.30;99.90
19483;DHT22;9882;51.166;6.992;2023-02-02T11:37:56;7.20;99.90
19483;DHT22;9882;51.166;6.992;2023-02-02T11:40:31;7.30;99.90
19483;DHT22;9882;51.166;6.992;2023-02-02T11:43:03;7.30;99.90
19483;DHT22;9882;51.166;6.992;2023-02-02T11:45:34;7.30;99.90
19483;DHT22;9882;51.166;6.992;2023-02-02T11:48:07;7.40;99.90
19483;DHT22;9882;51.166;6.992;2023-02-02T11:50:44;7.30;99.90
19483;DHT22;9882;51.166;6.992;2023-02-02T11:53:26;7.30;99.90
19483;DHT22;9882;51.166;6.992;2023-02-02T11:55:58;7.20;99.90
19483;DHT22;9882;51.166;6.992;2023-02-02T11:58:29;7.30;99.90
19483;DHT22;9882;51.166;6.992;2023-02-02T12:01:24;7.30;99.90
19483;DHT22;9882;51.166;6.992;2023-02-02T12:03:56;7.20;99.90
19483;DHT22;9882;51.166;6.992;2023-02-02T12:06:28;7.40;99.90
19483;DHT22;9882;51.166;6.992;2023-02-02T12:09:08;7.30;99.90
19483;DHT22;9882;51.166;6.992;2023-02-02T12:11:45;7.40;99.90
19483;DHT22;9882;51.166;6.992;2023-02-02T12:14:27;7.30;99.90
19483;DHT22;9882;51.166;6.992;2023-02-02T12:17:06;7.30;99.90
19483;DHT22;9882;51.166;6.992;2023-02-02T12:22:25;7.30;99.90
19483;DHT22;9882;51.166;6.992;2023-02-02T12:25:26;7.40;99.90
19483;DHT22;9882;51.166;6.992;2023-02-02T12:28:00;7.50;99.90
19483;DHT22;9882;51.166;6.992;2023-02-02T12:30:35;7.50;99.90
19483;DHT22;9882;51.166;6.992;2023-02-02T12:33:16;7.50;99.90
19483;DHT22;9882;51.166;6.992;2023-02-02T12:36:06;7.60;99.90
19483;DHT22;9882;51.166;6.992;2023-02-02T12:39:22;7.60;99.90
19483;DHT22;9882;51.166;6.992;2023-02-02T12:45:02;7.60;99.90
19483;DHT22;9882;51.166;6.992;2023-02-02T12:47:49;7.60;99.90
19483;DHT22;9882;51.166;6.992;2023-02-02T12:50:28;7.60;99.90
19483;DHT22;9882;51.166;6.992;2023-02-02T12:53:27;7.60;99.90
19483;DHT22;9882;51.166;6.992;2023-02-02T12:56:13;7.50;99.90
19483;DHT22;9882;51.166;6.992;2023-02-02T12:58:56;7.70;99.90
19483;DHT22;9882;51.166;6.992;2023-02-02T13:01:43;7.70;99.90
19483;DHT22;9882;51.166;6.992;2023-02-02T13:04:31;7.70;99.90
19483;DHT22;9882;51.166;6.992;2023-02-02T13:07:19;7.70;99.90
19483;DHT22;9882;51.166;6.992;2023-02-02T13:10:01;7.70;99.90
19483;DHT22;9882;51.166;6.992;2023-02-02T13:12:35;7.60;99.90
19483;DHT22;9882;51.166;6.992;2023-02-02T13:15:10;7.70;99.90
19483;DHT22;9882;51.166;6.992;2023-02-02T13:17:41;7.70;99.90
19483;DHT22;9882;51.166;6.992;2023-02-02T13:20:19;7.70;99.90
19483;DHT22;9882;51.166;6.992;2023-02-02T13:22:50;7.70;99.90
19483;DHT22;9882;51.166;6.992;2023-02-02T13:25:25;7.70;99.90
19483;DHT22;9882;51.166;6.992;2023-02-02T13:27:57;7.70;99.90
19483;DHT22;9882;51.166;6.992;2023-02-02T13:30:30;7.80;99.90
19483;DHT22;9882;51.166;6.992;2023-02-02T13:33:02;7.70;99.90
19483;DHT22;9882;51.166;6.992;2023-02-02T13:35:35;7.70;99.90
19483;DHT22;9882;51.166;6.992;2023-02-02T13:38:13;7.70;99.90
19483;DHT22;9882;51.166;6.992;2023-02-02T13:40:44;7.70;99.90
19483;DHT22;9882;51.166;6.992;2023-02-02T13:43:24;7.70;99.90
19483;DHT22;9882;51.166;6.992;2023-02-02T13:46:05;7.70;99.90
19483;DHT22;9882;51.166;6.992;2023-02-02T13:48:45;7.70;99.90
19483;DHT22;9882;51.166;6.992;2023-02-02T13:51:52;7.60;99.90
19483;DHT22;9882;51.166;6.992;2023-02-02T14:00:49;7.60;99.90
19483;DHT22;9882;51.166;6.992;2023-02-02T14:03:34;7.50;99.90
19483;DHT22;9882;51.166;6.992;2023-02-02T14:06:10;7.50;99.90
19483;DHT22;9882;51.166;6.992;2023-02-02T14:08:46;7.50;99.90
19483;DHT22;9882;51.166;6.992;2023-02-02T14:11:19;7.50;99.90
19483;DHT22;9882;51.166;6.992;2023-02-02T14:13:50;7.50;99.90
19483;DHT22;9882;51.166;6.992;2023-02-02T14:16:49;7.50;99.90
19483;DHT22;9882;51.166;6.992;2023-02-02T14:19:49;7.40;99.90
19483;DHT22;9882;51.166;6.992;2023-02-02T14:22:37;7.40;99.90
19483;DHT22;9882;51.166;6.992;2023-02-02T14:28:10;7.40;99.90
19483;DHT22;9882;51.166;6.992;2023-02-02T14:30:39;7.40;99.90
19483;DHT22;9882;51.166;6.992;2023-02-02T14:33:37;7.40;99.90
19483;DHT22;9882;51.166;6.992;2023-02-02T14:36:13;7.40;99.90
19483;DHT22;9882;51.166;6.992;2023-02-02T14:39:13;7.50;99.90
19483;DHT22;9882;51.166;6.992;2023-02-02T14:42:07;7.50;99.90
19483;DHT22;9882;51.166;6.992;2023-02-02T14:45:15;7.50;99.90
19483;DHT22;9882;51.166;6.992;2023-02-02T14:47:47;7.50;99.90
19483;DHT22;9882;51.166;6.992;2023-02-02T14:50:23;7.60;99.90
19483;DHT22;9882;51.166;6.992;2023-02-02T14:52:58;7.60;99.90
19483;DHT22;9882;51.166;6.992;2023-02-02T14:55:27;7.60;99.90
19483;DHT22;9882;51.166;6.992;2023-02-02T14:57:58;7.60;99.90
19483;DHT22;9882;51.166;6.992;2023-02-02T15:00:30;7.70;99.90
19483;DHT22;9882;51.166;6.992;2023-02-02T15:06:23;7.70;99.90
19483;DHT22;9882;51.166;6.992;2023-02-02T15:12:34;7.80;99.90
19483;DHT22;9882;51.166;6.992;2023-02-02T15:15:15;7.90;99.90
19483;DHT22;9882;51.166;6.992;2023-02-02T15:17:57;7.80;99.90
19483;DHT22;9882;51.166;6.992;2023-02-02T15:20:29;7.90;99.90
19483;DHT22;9882;51.166;6.992;2023-02-02T15:23:03;7.90;99.90
19483;DHT22;9882;51.166;6.992;2023-02-02T15:25:35;7.90;99.90
19483;DHT22;9882;51.166;6.992;2023-02-02T15:28:12;7.90;99.90
19483;DHT22;9882;51.166;6.992;2023-02-02T15:30:43;7.90;99.90
19483;DHT22;9882;51.166;6.992;2023-02-02T15:33:23;7.80;99.90
19483;DHT22;9882;51.166;6.992;2023-02-02T15:35:56;7.70;99.90
19483;DHT22;9882;51.166;6.992;2023-02-02T15:38:32;7.70;99.90
19483;DHT22;9882;51.166;6.992;2023-02-02T15:41:06;7.70;99.90
19483;DHT22;9882;51.166;6.992;2023-02-02T15:43:39;7.70;99.90
19483;DHT22;9882;51.166;6.992;2023-02-02T15:46:11;7.70;99.90
19483;DHT22;9882;51.166;6.992;2023-02-02T15:48:41;7.70;99.90
19483;DHT22;9882;51.166;6.992;2023-02-02T15:51:15;7.70;99.90
19483;DHT22;9882;51.166;6.992;2023-02-02T15:53:48;7.80;99.90
19483;DHT22;9882;51.166;6.992;2023-02-02T15:56:25;7.70;99.90
19483;DHT22;9882;51.166;6.992;2023-02-02T15:58:58;7.70;99.90
19483;DHT22;9882;51.166;6.992;2023-02-02T16:01:30;7.80;99.90
19483;DHT22;9882;51.166;6.992;2023-02-02T16:04:07;7.80;99.90
19483;DHT22;9882;51.166;6.992;2023-02-02T16:06:40;7.80;99.90
19483;DHT22;9882;51.166;6.992;2023-02-02T16:09:19;7.90;99.90
19483;DHT22;9882;51.166;6.992;2023-02-02T16:11:50;7.70;99.90
19483;DHT22;9882;51.166;6.992;2023-02-02T16:14:19;7.70;99.90
19483;DHT22;9882;51.166;6.992;2023-02-02T16:16:48;7.70;99.90
19483;DHT22;9882;51.166;6.992;2023-02-02T16:19:19;7.60;99.90
19483;DHT22;9882;51.166;6.992;2023-02-02T16:21:52;7.60;99.90
19483;DHT22;9882;51.166;6.992;2023-02-02T16:24:24;7.60;99.90
19483;DHT22;9882;51.166;6.992;2023-02-02T16:26:57;7.60;99.90
19483;DHT22;9882;51.166;6.992;2023-02-02T16:29:26;7.50;99.90
19483;DHT22;9882;51.166;6.992;2023-02-02T16:31:55;7.50;99.90
19483;DHT22;9882;51.166;6.992;2023-02-02T16:34:42;7.50;99.90
19483;DHT22;9882;51.166;6.992;2023-02-02T16:37:15;7.40;99.90
19483;DHT22;9882;51.166;6.992;2023-02-02T16:39:45;7.40;99.90
19483;DHT22;9882;51.166;6.992;2023-02-02T16:42:23;7.40;99.90
19483;DHT22;9882;51.166;6.992;2023-02-02T16:44:52;7.40;99.90
19483;DHT22;9882;51.166;6.992;2023-02-02T16:47:33;7.40;99.90
19483;DHT22;9882;51.166;6.992;2023-02-02T16:50:25;7.40;99.90
19483;DHT22;9882;51.166;6.992;2023-02-02T16:52:57;7.40;99.90
19483;DHT22;9882;51.166;6.992;2023-02-02T16:55:29;7.30;99.90
19483;DHT22;9882;51.166;6.992;2023-02-02T16:58:17;7.30;99.90
19483;DHT22;9882;51.166;6.992;2023-02-02T17:00:59;7.30;99.90
19483;DHT22;9882;51.166;6.992;2023-02-02T17:03:46;7.30;99.90
19483;DHT22;9882;51.166;6.992;2023-02-02T17:06:20;7.30;99.90
19483;DHT22;9882;51.166;6.992;2023-02-02T17:08:52;7.30;99.90